createdAt,value
2023-04-24T00:01:51.389Z,2.60
2023-04-24T00:04:18.652Z,2.90
2023-04-24T00:06:50.589Z,2.60
2023-04-24T00:09:17.511Z,2.90
2023-04-24T00:11:44.351Z,2.70
2023-04-24T00:14:11.307Z,2.80
2023-04-24T00:16:38.204Z,2.40
2023-04-24T00:19:06.989Z,2.80
2023-04-24T00:21:33.885Z,2.50
2023-04-24T00:24:01.001Z,2.20
2023-04-24T00:26:28.004Z,2.70
2023-04-24T00:28:54.854Z,2.40
2023-04-24T00:31:22.153Z,2.30
2023-04-24T00:33:49.123Z,2.20
2023-04-24T00:36:16.130Z,2.20
2023-04-24T00:38:43.060Z,2.40
2023-04-24T00:41:10.556Z,2.30
2023-04-24T00:43:37.892Z,2.70
2023-04-24T00:46:04.857Z,2.70
2023-04-24T00:48:32.005Z,2.50
2023-04-24T00:50:59.888Z,2.60
2023-04-24T00:53:26.824Z,2.00
2023-04-24T00:55:53.779Z,2.20
2023-04-24T00:58:21.239Z,3.30
2023-04-24T01:00:48.503Z,2.40
2023-04-24T01:03:15.458Z,2.50
2023-04-24T01:05:42.810Z,2.50
2023-04-24T01:08:09.770Z,3.30
2023-04-24T01:10:36.661Z,2.90
2023-04-24T01:13:03.590Z,3.00
2023-04-24T01:15:30.640Z,3.00
2023-04-24T01:17:57.690Z,3.20
2023-04-24T01:20:25.789Z,3.30
2023-04-24T01:22:53.851Z,2.80
2023-04-24T01:25:24.014Z,3.00
2023-04-24T01:27:51.326Z,3.20
2023-04-24T01:30:18.212Z,3.00
2023-04-24T01:32:45.772Z,2.70
2023-04-24T01:35:12.778Z,2.60
2023-04-24T01:37:39.848Z,3.20
2023-04-24T01:40:08.284Z,3.00
2023-04-24T01:42:35.519Z,2.80
2023-04-24T01:45:04.400Z,3.20
2023-04-24T01:47:31.954Z,2.90
2023-04-24T01:49:59.292Z,3.10
2023-04-24T01:52:26.776Z,2.80
2023-04-24T01:54:54.851Z,2.20
2023-04-24T01:57:21.788Z,2.70
2023-04-24T01:59:48.735Z,2.70
2023-04-24T02:02:16.148Z,2.80
2023-04-24T02:04:43.662Z,2.70
2023-04-24T02:07:10.538Z,2.40
2023-04-24T02:09:37.483Z,2.40
2023-04-24T02:12:04.492Z,3.00
2023-04-24T02:14:31.378Z,2.50
2023-04-24T02:16:58.931Z,2.30
2023-04-24T02:19:25.881Z,2.50
2023-04-24T02:21:52.832Z,2.90
2023-04-24T02:24:19.782Z,3.70
2023-04-24T02:26:46.743Z,5.50
2023-04-24T02:29:13.681Z,5.10
2023-04-24T02:31:41.834Z,5.80
2023-04-24T02:34:08.914Z,5.40
2023-04-24T02:36:35.769Z,4.90
2023-04-24T02:39:02.714Z,4.20
2023-04-24T02:41:32.869Z,5.40
2023-04-24T02:43:59.990Z,4.90
2023-04-24T02:46:26.967Z,4.90
2023-04-24T02:48:54.003Z,5.20
2023-04-24T02:51:20.947Z,5.60
2023-04-24T02:53:47.965Z,4.80
2023-04-24T02:56:14.885Z,4.90
2023-04-24T02:58:41.916Z,4.90
2023-04-24T03:01:11.328Z,4.60
2023-04-24T03:03:41.533Z,4.70
2023-04-24T03:06:09.539Z,4.10
2023-04-24T03:08:36.548Z,4.20
2023-04-24T03:11:03.729Z,3.80
2023-04-24T03:13:30.610Z,3.80
2023-04-24T03:15:57.504Z,4.20
2023-04-24T03:18:24.474Z,4.40
2023-04-24T03:20:51.732Z,3.40
2023-04-24T03:23:18.890Z,4.10
2023-04-24T03:25:46.564Z,4.00
2023-04-24T03:28:13.810Z,4.10
2023-04-24T03:30:44.269Z,4.20
2023-04-24T03:33:11.607Z,4.00
2023-04-24T03:35:43.371Z,3.90
2023-04-24T03:38:11.466Z,3.60
2023-04-24T03:40:57.026Z,3.60
2023-04-24T03:43:36.059Z,3.70
2023-04-24T03:46:03.399Z,4.90
2023-04-24T03:48:31.691Z,4.90
2023-04-24T03:50:58.554Z,6.20
2023-04-24T03:53:25.828Z,5.80
2023-04-24T03:55:52.853Z,6.80
2023-04-24T03:58:19.781Z,7.50
2023-04-24T04:00:48.920Z,8.30
2023-04-24T04:03:34.672Z,8.10
2023-04-24T04:06:01.722Z,8.60
2023-04-24T04:08:28.629Z,10.60
2023-04-24T04:10:56.050Z,9.00
2023-04-24T04:13:23.806Z,8.90
2023-04-24T04:15:51.096Z,9.30
2023-04-24T04:18:18.332Z,8.50
2023-04-24T04:20:45.837Z,9.30
2023-04-24T04:23:13.958Z,10.00
2023-04-24T04:25:52.931Z,10.10
2023-04-24T04:28:22.399Z,10.30
2023-04-24T04:30:50.187Z,9.80
2023-04-24T04:33:17.489Z,9.40
2023-04-24T04:35:44.796Z,10.80
2023-04-24T04:38:12.698Z,10.70
2023-04-24T04:40:47.486Z,10.60
2023-04-24T04:43:16.007Z,10.90
2023-04-24T04:45:49.490Z,10.80
2023-04-24T04:48:39.132Z,10.10
2023-04-24T04:51:06.607Z,11.40
2023-04-24T04:53:33.478Z,11.90
2023-04-24T04:56:00.995Z,10.80
2023-04-24T04:58:34.745Z,12.00
2023-04-24T05:01:02.049Z,10.90
2023-04-24T05:03:32.886Z,11.80
2023-04-24T05:06:03.939Z,11.90
2023-04-24T05:08:32.935Z,10.60
2023-04-24T05:11:00.203Z,11.20
2023-04-24T05:13:38.155Z,11.60
2023-04-24T05:16:08.339Z,11.30
2023-04-24T05:18:35.378Z,11.50
2023-04-24T05:21:02.472Z,13.90
2023-04-24T05:23:29.394Z,12.90
2023-04-24T05:25:56.670Z,11.70
2023-04-24T05:28:23.562Z,10.90
2023-04-24T05:31:02.306Z,8.10
2023-04-24T05:33:29.606Z,7.20
2023-04-24T05:35:56.559Z,6.90
2023-04-24T05:38:23.509Z,6.20
2023-04-24T05:40:50.356Z,6.30
2023-04-24T05:43:17.233Z,6.40
2023-04-24T05:45:44.104Z,7.10
2023-04-24T05:48:11.075Z,5.90
2023-04-24T05:50:38.173Z,6.40
2023-04-24T05:53:05.533Z,6.00
2023-04-24T05:55:34.434Z,5.90
2023-04-24T05:58:02.121Z,5.90
2023-04-24T06:00:30.452Z,4.90
2023-04-24T06:03:01.721Z,4.50
2023-04-24T06:05:30.188Z,5.30
2023-04-24T06:07:57.376Z,5.10
2023-04-24T06:10:26.764Z,5.30
2023-04-24T06:12:53.810Z,6.90
2023-04-24T06:15:20.767Z,9.80
2023-04-24T06:17:53.394Z,10.40
2023-04-24T06:20:21.140Z,7.90
2023-04-24T06:22:48.195Z,8.40
2023-04-24T06:25:15.140Z,11.20
2023-04-24T06:27:41.993Z,12.70
2023-04-24T06:30:09.698Z,11.20
2023-04-24T06:32:36.671Z,10.50
2023-04-24T06:35:04.502Z,10.50
2023-04-24T06:37:33.343Z,7.40
2023-04-24T06:40:00.335Z,5.40
2023-04-24T06:42:27.278Z,4.40
2023-04-24T06:44:56.247Z,3.90
2023-04-24T06:47:23.350Z,3.20
2023-04-24T06:49:52.083Z,3.00
2023-04-24T06:52:19.387Z,2.60
2023-04-24T06:54:46.334Z,2.60
2023-04-24T06:57:13.386Z,2.70
2023-04-24T06:59:40.296Z,2.80
2023-04-24T07:02:07.616Z,2.60
2023-04-24T07:04:34.882Z,3.40
2023-04-24T07:07:02.049Z,3.30
2023-04-24T07:09:28.962Z,3.80
2023-04-24T07:11:57.534Z,3.10
2023-04-24T07:14:24.501Z,3.10
2023-04-24T07:16:51.367Z,3.30
2023-04-24T07:19:18.341Z,3.00
2023-04-24T07:21:45.254Z,3.50
2023-04-24T07:24:13.984Z,3.40
2023-04-24T07:26:41.510Z,3.90
2023-04-24T07:29:08.983Z,4.00
2023-04-24T07:31:36.175Z,3.60
2023-04-24T07:34:03.309Z,4.20
2023-04-24T07:36:30.232Z,3.90
2023-04-24T07:38:58.116Z,3.10
2023-04-24T07:41:25.486Z,2.90
2023-04-24T07:43:53.778Z,2.80
2023-04-24T07:46:21.420Z,2.60
2023-04-24T07:48:58.611Z,2.30
2023-04-24T07:51:33.799Z,2.60
2023-04-24T07:54:00.797Z,2.10
2023-04-24T07:56:28.144Z,2.30
2023-04-24T07:58:55.862Z,2.50
2023-04-24T08:01:22.722Z,2.40
2023-04-24T08:03:49.800Z,2.40
2023-04-24T08:06:16.846Z,2.00
2023-04-24T08:08:43.829Z,1.70
2023-04-24T08:11:11.016Z,2.20
2023-04-24T08:13:38.051Z,1.70
2023-04-24T08:16:05.257Z,1.80
2023-04-24T08:18:32.202Z,2.40
2023-04-24T08:21:02.645Z,2.20
2023-04-24T08:23:30.965Z,2.00
2023-04-24T08:25:58.932Z,2.00
2023-04-24T08:28:26.513Z,1.70
2023-04-24T08:30:55.965Z,2.00
2023-04-24T08:33:24.061Z,2.00
2023-04-24T08:35:51.194Z,2.70
2023-04-24T08:38:18.357Z,2.20
2023-04-24T08:40:47.264Z,2.30
2023-04-24T08:43:14.790Z,2.30
2023-04-24T08:45:41.868Z,2.00
2023-04-24T08:48:13.985Z,2.00
2023-04-24T08:50:47.173Z,1.70
2023-04-24T08:53:14.127Z,1.90
2023-04-24T08:55:40.991Z,2.30
2023-04-24T08:58:07.834Z,1.90
2023-04-24T09:00:34.675Z,2.00
2023-04-24T09:03:01.893Z,2.10
2023-04-24T09:05:28.934Z,1.90
2023-04-24T09:07:56.999Z,1.70
2023-04-24T09:10:25.110Z,1.80
2023-04-24T09:12:52.913Z,1.90
2023-04-24T09:15:21.514Z,1.50
2023-04-24T09:17:48.781Z,2.40
2023-04-24T09:20:15.813Z,2.00
2023-04-24T09:22:44.010Z,1.80
2023-04-24T09:25:13.735Z,2.10
2023-04-24T09:27:47.413Z,1.90
2023-04-24T09:30:14.977Z,1.80
2023-04-24T09:32:42.927Z,2.00
2023-04-24T09:35:11.337Z,2.20
2023-04-24T09:37:43.441Z,1.80
2023-04-24T09:40:21.589Z,2.20
2023-04-24T09:42:56.830Z,1.80
2023-04-24T09:45:28.200Z,1.80
2023-04-24T09:47:56.873Z,2.10
2023-04-24T09:50:24.115Z,2.00
2023-04-24T09:52:59.552Z,2.00
2023-04-24T09:55:26.655Z,2.10
2023-04-24T09:57:58.021Z,2.00
2023-04-24T10:00:27.207Z,1.90
2023-04-24T10:03:01.774Z,1.70
2023-04-24T10:05:33.748Z,2.20
2023-04-24T10:08:08.203Z,1.70
2023-04-24T10:10:39.470Z,2.40
2023-04-24T10:13:06.622Z,1.80
2023-04-24T10:15:33.626Z,1.90
2023-04-24T10:18:00.789Z,1.80
2023-04-24T10:20:30.556Z,1.80
2023-04-24T10:22:58.524Z,2.00
2023-04-24T10:25:27.220Z,1.90
2023-04-24T10:27:54.372Z,1.90
2023-04-24T10:30:21.341Z,2.00
2023-04-24T10:32:48.297Z,2.30
2023-04-24T10:35:16.008Z,2.00
2023-04-24T10:37:57.079Z,1.80
2023-04-24T10:40:29.208Z,1.90
2023-04-24T10:42:58.083Z,1.90
2023-04-24T10:45:26.204Z,2.20
2023-04-24T10:47:59.726Z,1.80
2023-04-24T10:50:28.303Z,2.40
2023-04-24T10:53:05.865Z,2.10
2023-04-24T10:55:53.639Z,2.10
2023-04-24T10:58:24.298Z,2.40
2023-04-24T11:00:59.436Z,2.00
2023-04-24T11:03:31.818Z,1.90
2023-04-24T11:06:03.974Z,1.80
2023-04-24T11:08:33.284Z,1.90
2023-04-24T11:11:05.264Z,2.20
2023-04-24T11:13:57.905Z,2.50
2023-04-24T11:16:27.827Z,1.90
2023-04-24T11:19:08.070Z,2.30
2023-04-24T11:21:44.088Z,1.80
2023-04-24T11:24:33.790Z,1.90
2023-04-24T11:27:00.682Z,2.00
2023-04-24T11:29:56.060Z,1.90
2023-04-24T11:32:37.949Z,2.00
2023-04-24T11:35:22.436Z,2.40
2023-04-24T11:40:21.707Z,2.30
2023-04-24T11:42:48.966Z,2.80
2023-04-24T11:45:23.206Z,2.20
2023-04-24T11:47:51.189Z,1.80
2023-04-24T11:50:19.906Z,1.90
2023-04-24T11:52:47.839Z,2.60
2023-04-24T11:55:17.743Z,2.50
2023-04-24T11:57:49.031Z,2.00
2023-04-24T12:00:21.575Z,2.20
2023-04-24T12:02:49.245Z,2.30
2023-04-24T12:05:32.743Z,2.20
2023-04-24T12:08:00.222Z,2.90
2023-04-24T12:10:28.925Z,3.00
2023-04-24T12:12:57.194Z,2.50
2023-04-24T12:15:24.359Z,2.60
2023-04-24T12:17:55.020Z,2.90
2023-04-24T12:20:29.348Z,2.30
2023-04-24T12:23:01.036Z,2.20
2023-04-24T12:25:29.570Z,2.30
2023-04-24T12:27:57.257Z,2.30
2023-04-24T12:30:29.104Z,2.60
2023-04-24T12:32:58.162Z,2.60
2023-04-24T12:35:26.641Z,2.40
2023-04-24T12:37:53.629Z,2.50
2023-04-24T12:40:21.635Z,2.70
2023-04-24T12:42:50.247Z,2.70
2023-04-24T12:45:18.029Z,2.70
2023-04-24T12:47:46.081Z,3.30
2023-04-24T12:50:14.937Z,2.70
2023-04-24T12:52:42.442Z,2.60
2023-04-24T12:55:10.430Z,2.20
2023-04-24T12:57:38.408Z,2.00
2023-04-24T13:00:07.199Z,2.20
2023-04-24T13:02:35.277Z,2.10
2023-04-24T13:05:02.784Z,2.40
2023-04-24T13:07:29.755Z,2.10
2023-04-24T13:09:57.035Z,2.30
2023-04-24T13:12:25.169Z,2.70
2023-04-24T13:14:52.229Z,2.50
2023-04-24T13:17:19.179Z,2.50
2023-04-24T13:19:46.747Z,2.70
2023-04-24T13:22:13.994Z,2.50
2023-04-24T13:24:43.922Z,2.60
2023-04-24T13:27:10.914Z,3.10
2023-04-24T13:29:38.530Z,3.20
2023-04-24T13:32:05.733Z,3.90
2023-04-24T13:34:32.753Z,3.70
2023-04-24T13:36:59.843Z,3.20
2023-04-24T13:39:27.227Z,2.80
2023-04-24T13:41:54.833Z,2.10
2023-04-24T13:44:21.996Z,2.10
2023-04-24T13:46:49.795Z,2.30
2023-04-24T13:49:16.831Z,2.60
2023-04-24T13:51:43.766Z,2.20
2023-04-24T13:54:10.867Z,1.90
2023-04-24T13:56:37.774Z,2.30
2023-04-24T13:59:04.610Z,1.90
2023-04-24T14:01:32.018Z,2.70
2023-04-24T14:03:59.187Z,2.50
2023-04-24T14:06:27.000Z,2.90
2023-04-24T14:08:54.014Z,2.50
2023-04-24T14:11:21.119Z,2.60
2023-04-24T14:13:48.066Z,2.50
2023-04-24T14:16:15.778Z,2.40
2023-04-24T14:18:42.785Z,2.40
2023-04-24T14:21:09.932Z,2.50
2023-04-24T14:23:36.940Z,2.70
2023-04-24T14:26:03.745Z,2.80
2023-04-24T14:28:30.661Z,2.70
2023-04-24T14:30:57.518Z,2.70
2023-04-24T14:33:24.470Z,2.30
2023-04-24T14:35:51.339Z,2.20
2023-04-24T14:38:18.206Z,2.70
2023-04-24T14:41:05.570Z,2.90
2023-04-24T14:43:32.056Z,3.30
2023-04-24T14:45:59.088Z,2.80
2023-04-24T14:48:26.160Z,2.50
2023-04-24T14:50:52.996Z,2.90
2023-04-24T14:53:20.059Z,2.80
2023-04-24T14:55:47.016Z,2.80
2023-04-24T14:58:13.961Z,3.10
2023-04-24T15:00:41.217Z,3.90
2023-04-24T15:03:08.737Z,3.00
2023-04-24T15:05:36.994Z,3.20
2023-04-24T15:08:04.296Z,3.00
2023-04-24T15:10:31.192Z,2.90
2023-04-24T15:12:58.067Z,3.00
2023-04-24T15:15:25.638Z,3.10
2023-04-24T15:17:58.035Z,3.00
2023-04-24T15:20:25.103Z,2.40
2023-04-24T15:22:52.269Z,2.00
2023-04-24T15:25:19.417Z,2.30
2023-04-24T15:27:47.317Z,2.90
2023-04-24T15:30:15.142Z,2.80
2023-04-24T15:32:42.328Z,2.60
2023-04-24T15:35:10.528Z,2.60
2023-04-24T15:37:43.906Z,2.40
2023-04-24T15:40:14.460Z,2.10
2023-04-24T15:42:42.339Z,3.00
2023-04-24T15:45:13.008Z,2.00
2023-04-24T15:47:42.600Z,2.30
2023-04-24T15:50:12.763Z,2.20
2023-04-24T15:52:41.221Z,2.60
2023-04-24T15:55:08.451Z,2.20
2023-04-24T15:57:38.654Z,2.50
2023-04-24T16:00:07.510Z,2.00
2023-04-24T16:02:40.973Z,2.60
2023-04-24T16:05:12.683Z,2.50
2023-04-24T16:07:42.089Z,2.50
2023-04-24T16:10:09.448Z,2.60
2023-04-24T16:12:36.595Z,2.80
2023-04-24T16:15:04.145Z,2.50
2023-04-24T16:17:31.137Z,2.40
2023-04-24T16:19:58.086Z,2.60
2023-04-24T16:22:25.291Z,2.20
2023-04-24T16:24:52.358Z,2.30
2023-04-24T16:27:19.271Z,2.60
2023-04-24T16:29:48.434Z,2.00
2023-04-24T16:32:15.415Z,2.50
2023-04-24T16:34:42.384Z,2.30
2023-04-24T16:37:09.564Z,2.30
2023-04-24T16:39:44.098Z,2.20
2023-04-24T16:42:13.461Z,2.90
2023-04-24T16:44:43.142Z,2.30
2023-04-24T16:47:11.545Z,2.30
2023-04-24T16:49:38.572Z,2.70
2023-04-24T16:52:05.494Z,2.90
2023-04-24T16:54:34.800Z,2.60
2023-04-24T16:57:01.939Z,2.50
2023-04-24T16:59:29.461Z,2.60
2023-04-24T17:01:56.535Z,2.50
2023-04-24T17:04:23.531Z,2.20
2023-04-24T17:06:50.703Z,2.30
2023-04-24T17:09:17.635Z,2.40
2023-04-24T17:11:44.565Z,2.20
2023-04-24T17:14:11.581Z,2.10
2023-04-24T17:16:38.647Z,2.10
2023-04-24T17:19:05.925Z,2.00
2023-04-24T17:21:33.205Z,2.30
2023-04-24T17:24:00.091Z,2.70
2023-04-24T17:26:27.704Z,2.50
2023-04-24T17:28:55.397Z,2.70
2023-04-24T17:31:23.430Z,2.10
2023-04-24T17:33:50.843Z,2.20
2023-04-24T17:36:17.683Z,2.30
2023-04-24T17:38:44.569Z,2.40
2023-04-24T17:41:11.476Z,2.60
2023-04-24T17:43:38.358Z,2.70
2023-04-24T17:46:07.581Z,2.80
2023-04-24T17:48:35.551Z,3.00
2023-04-24T17:51:02.484Z,2.90
2023-04-24T17:53:29.450Z,2.90
2023-04-24T17:55:59.469Z,2.40
2023-04-24T17:58:26.943Z,3.10
2023-04-24T18:00:53.869Z,2.60
2023-04-24T18:03:21.005Z,2.50
2023-04-24T18:05:48.115Z,2.60
2023-04-24T18:08:14.933Z,2.90
2023-04-24T18:10:44.750Z,3.10
2023-04-24T18:13:11.924Z,2.70
2023-04-24T18:15:42.189Z,2.60
2023-04-24T18:18:11.176Z,2.90
2023-04-24T18:20:38.205Z,2.40
2023-04-24T18:23:05.530Z,2.60
2023-04-24T18:25:32.418Z,2.80
2023-04-24T18:27:59.389Z,2.90
2023-04-24T18:30:27.057Z,3.20
2023-04-24T18:32:54.137Z,3.40
2023-04-24T18:35:21.657Z,3.50
2023-04-24T18:37:49.022Z,3.70
2023-04-24T18:40:16.373Z,3.90
2023-04-24T18:42:43.335Z,3.90
2023-04-24T18:45:13.830Z,4.80
2023-04-24T18:47:42.020Z,5.10
2023-04-24T18:50:09.604Z,4.70
2023-04-24T18:52:36.400Z,4.30
2023-04-24T18:55:04.222Z,4.50
2023-04-24T18:57:31.119Z,4.50
2023-04-24T18:59:57.976Z,4.20
2023-04-24T19:04:51.764Z,4.30
2023-04-24T19:07:19.855Z,3.20
2023-04-24T19:09:46.712Z,3.70
2023-04-24T19:12:13.591Z,3.40
2023-04-24T19:14:40.492Z,3.90
2023-04-24T19:17:10.181Z,3.50
2023-04-24T19:19:37.148Z,3.60
2023-04-24T19:22:04.103Z,3.90
2023-04-24T19:24:33.403Z,3.90
2023-04-24T19:27:00.639Z,3.90
2023-04-24T19:29:27.510Z,3.40
2023-04-24T19:31:55.859Z,3.60
2023-04-24T19:34:22.745Z,3.60
2023-04-24T19:36:49.902Z,3.60
2023-04-24T19:39:16.829Z,3.90
2023-04-24T19:41:43.707Z,3.20
2023-04-24T19:44:10.734Z,3.30
2023-04-24T19:46:39.908Z,3.70
2023-04-24T19:49:06.905Z,2.80
2023-04-24T19:51:33.841Z,3.00
2023-04-24T19:54:01.265Z,3.00
2023-04-24T19:56:28.104Z,3.00
2023-04-24T19:58:55.235Z,3.00
2023-04-24T20:01:22.108Z,3.70
2023-04-24T20:03:49.157Z,3.50
2023-04-24T20:06:16.228Z,3.10
2023-04-24T20:08:43.062Z,3.30
2023-04-24T20:11:10.216Z,3.30
2023-04-24T20:13:37.078Z,3.30
2023-04-24T20:16:04.680Z,3.10
2023-04-24T20:18:31.566Z,3.00
2023-04-24T20:20:59.963Z,3.30
2023-04-24T20:23:27.134Z,3.60
2023-04-24T20:25:59.950Z,3.80
2023-04-24T20:28:30.506Z,3.60
2023-04-24T20:30:58.405Z,3.40
2023-04-24T20:33:26.173Z,3.30
2023-04-24T20:35:52.977Z,3.60
2023-04-24T20:38:19.902Z,3.90
2023-04-24T20:40:57.633Z,3.90
2023-04-24T20:43:28.843Z,4.20
2023-04-24T20:45:58.208Z,4.10
2023-04-24T20:48:26.730Z,4.30
2023-04-24T20:50:54.112Z,4.60
2023-04-24T20:53:23.964Z,4.60
2023-04-24T20:55:50.930Z,5.40
2023-04-24T20:58:24.552Z,5.20
2023-04-24T21:00:51.675Z,4.90
2023-04-24T21:03:18.768Z,4.60
2023-04-24T21:05:45.930Z,4.70
2023-04-24T21:08:12.802Z,4.40
2023-04-24T21:10:39.667Z,4.60
2023-04-24T21:13:06.536Z,4.90
2023-04-24T21:15:33.752Z,3.90
2023-04-24T21:18:01.407Z,4.10
2023-04-24T21:20:28.299Z,4.20
2023-04-24T21:22:55.148Z,3.90
2023-04-24T21:25:22.050Z,3.90
2023-04-24T21:27:48.916Z,4.20
2023-04-24T21:30:15.745Z,3.80
2023-04-24T21:32:42.742Z,4.00
2023-04-24T21:35:09.856Z,3.60
2023-04-24T21:37:37.973Z,4.60
2023-04-24T21:40:05.142Z,4.50
2023-04-24T21:42:32.045Z,4.30
2023-04-24T21:44:58.885Z,4.30
2023-04-24T21:47:25.808Z,3.80
2023-04-24T21:49:52.771Z,4.10
2023-04-24T21:52:20.300Z,4.40
2023-04-24T21:54:47.214Z,4.00
2023-04-24T21:57:14.201Z,4.30
2023-04-24T21:59:41.062Z,4.20
2023-04-24T22:02:07.899Z,4.10
2023-04-24T22:04:35.050Z,3.90
2023-04-24T22:07:02.009Z,3.90
2023-04-24T22:09:28.900Z,4.50
2023-04-24T22:11:56.966Z,4.60
2023-04-24T22:14:23.878Z,3.70
2023-04-24T22:16:50.739Z,3.90
2023-04-24T22:19:17.782Z,3.60
2023-04-24T22:21:45.006Z,3.90
2023-04-24T22:24:11.818Z,3.60
2023-04-24T22:26:38.715Z,3.20
2023-04-24T22:29:05.707Z,3.50
2023-04-24T22:31:32.752Z,3.90
2023-04-24T22:33:59.752Z,3.40
2023-04-24T22:36:27.210Z,3.30
2023-04-24T22:38:54.625Z,3.40
2023-04-24T22:41:21.860Z,3.60
2023-04-24T22:43:48.865Z,4.00
2023-04-24T22:46:16.602Z,3.50
2023-04-24T22:48:44.162Z,3.30
2023-04-24T22:51:11.149Z,3.30
2023-04-24T22:53:37.971Z,3.40
2023-04-24T22:56:05.134Z,3.30
2023-04-24T22:58:32.379Z,3.30
2023-04-24T23:00:59.207Z,3.40
2023-04-24T23:03:26.477Z,3.60
2023-04-24T23:05:53.580Z,3.50
2023-04-24T23:08:20.429Z,3.80
2023-04-24T23:10:47.816Z,3.50
2023-04-24T23:13:14.657Z,3.20
2023-04-24T23:15:42.223Z,3.80
2023-04-24T23:18:09.340Z,3.30
2023-04-24T23:20:36.190Z,3.60
2023-04-24T23:23:02.983Z,3.70
2023-04-24T23:25:29.872Z,3.70
2023-04-24T23:27:56.783Z,3.20
2023-04-24T23:30:23.637Z,3.30
2023-04-24T23:32:50.521Z,3.70
2023-04-24T23:35:17.365Z,3.50
2023-04-24T23:37:44.257Z,3.60
2023-04-24T23:40:11.287Z,3.80
2023-04-24T23:42:38.145Z,3.40
2023-04-24T23:45:05.590Z,3.60
2023-04-24T23:47:32.474Z,3.40
2023-04-24T23:49:59.393Z,3.50
2023-04-24T23:52:26.345Z,3.70
2023-04-24T23:54:53.269Z,3.30
2023-04-24T23:57:20.097Z,3.90
2023-04-24T23:59:46.924Z,3.60
